createdAt,value
2022-10-01T00:03:10.813Z,8.12
2022-10-01T00:08:16.122Z,8.10
2022-10-01T00:13:17.844Z,8.01
2022-10-01T00:18:19.538Z,7.90
2022-10-01T00:23:21.271Z,7.85
2022-10-01T00:28:22.989Z,7.86
2022-10-01T00:33:25.946Z,7.90
2022-10-01T00:38:28.738Z,7.86
2022-10-01T00:43:37.275Z,7.85
2022-10-01T00:48:59.041Z,7.86
2022-10-01T00:54:10.807Z,7.84
2022-10-01T00:59:15.710Z,7.84
2022-10-01T01:04:17.852Z,7.94
2022-10-01T01:09:22.341Z,8.01
2022-10-01T01:14:57.463Z,7.91
2022-10-01T01:20:08.145Z,7.88
2022-10-01T01:25:21.714Z,7.86
2022-10-01T01:30:24.016Z,7.78
2022-10-01T01:35:37.079Z,7.80
2022-10-01T01:40:42.979Z,7.87
2022-10-01T01:45:47.685Z,7.95
2022-10-01T01:51:04.752Z,7.99
2022-10-01T01:56:07.473Z,8.01
2022-10-01T02:01:40.711Z,7.93
2022-10-01T02:07:23.984Z,7.85
2022-10-01T02:12:50.879Z,7.80
2022-10-01T02:18:42.612Z,7.72
2022-10-01T02:24:01.010Z,7.62
2022-10-01T02:29:09.409Z,7.57
2022-10-01T02:34:19.993Z,7.49
2022-10-01T02:39:26.686Z,7.37
2022-10-01T02:44:41.499Z,7.26
2022-10-01T02:49:43.894Z,7.21
2022-10-01T02:54:54.268Z,7.19
2022-10-01T03:00:08.632Z,7.20
2022-10-01T03:05:10.519Z,7.20
2022-10-01T03:10:15.562Z,7.12
2022-10-01T03:15:19.779Z,6.95
2022-10-01T03:20:22.481Z,6.79
2022-10-01T03:25:24.328Z,6.63
2022-10-01T03:30:26.439Z,6.56
2022-10-01T03:35:28.120Z,6.60
2022-10-01T03:40:32.741Z,6.60
2022-10-01T03:45:34.416Z,6.56
2022-10-01T03:50:36.134Z,6.49
2022-10-01T03:55:37.772Z,6.41
2022-10-01T04:00:39.378Z,6.32
2022-10-01T04:05:45.931Z,6.32
2022-10-01T04:10:48.918Z,6.36
2022-10-01T04:15:50.592Z,6.37
2022-10-01T04:20:52.333Z,6.37
2022-10-01T04:25:54.475Z,6.26
2022-10-01T04:31:15.064Z,6.09
2022-10-01T04:36:16.946Z,5.99
2022-10-01T04:41:19.271Z,5.91
2022-10-01T04:46:21.185Z,5.86
2022-10-01T04:51:23.089Z,5.86
2022-10-01T04:56:24.749Z,5.94
2022-10-01T05:01:26.432Z,5.98
2022-10-01T05:06:28.187Z,5.94
2022-10-01T05:11:29.991Z,5.87
2022-10-01T05:16:31.704Z,5.85
2022-10-01T05:21:33.629Z,5.89
2022-10-01T05:26:37.252Z,5.98
2022-10-01T05:31:43.816Z,6.09
2022-10-01T05:36:45.558Z,6.21
2022-10-01T05:41:47.188Z,6.23
2022-10-01T05:46:49.886Z,6.26
2022-10-01T05:51:51.564Z,6.32
2022-10-01T05:56:54.157Z,6.45
2022-10-01T06:01:55.912Z,6.63
2022-10-01T06:06:58.452Z,6.81
2022-10-01T06:12:00.343Z,6.96
2022-10-01T06:17:02.031Z,7.10
2022-10-01T06:22:03.717Z,7.17
2022-10-01T06:27:05.472Z,7.23
2022-10-01T06:32:10.239Z,7.37
2022-10-01T06:37:12.026Z,7.55
2022-10-01T06:42:13.851Z,7.77
2022-10-01T06:47:15.630Z,7.95
2022-10-01T06:52:35.842Z,8.20
2022-10-01T06:57:37.566Z,8.43
2022-10-01T07:02:40.736Z,8.67
2022-10-01T07:07:44.312Z,8.87
2022-10-01T07:12:50.195Z,9.06
2022-10-01T07:17:52.451Z,9.24
2022-10-01T07:22:59.630Z,9.54
2022-10-01T07:28:05.096Z,9.78
2022-10-01T07:33:06.889Z,10.02
2022-10-01T07:38:08.763Z,10.28
2022-10-01T07:43:10.544Z,10.51
2022-10-01T07:48:16.829Z,10.74
2022-10-01T07:53:19.593Z,10.94
2022-10-01T07:58:23.448Z,11.21
2022-10-01T08:03:25.244Z,11.47
2022-10-01T08:08:26.993Z,11.69
2022-10-01T08:13:29.278Z,11.85
2022-10-01T08:18:32.888Z,11.98
2022-10-01T08:23:35.933Z,12.11
2022-10-01T08:28:37.878Z,12.22
2022-10-01T08:33:40.065Z,12.35
2022-10-01T08:38:47.084Z,12.56
2022-10-01T08:43:51.217Z,12.79
2022-10-01T08:49:20.215Z,12.97
2022-10-01T08:54:42.258Z,13.14
2022-10-01T08:59:44.030Z,13.28
2022-10-01T09:04:49.869Z,13.42
2022-10-01T09:10:17.610Z,13.56
2022-10-01T09:15:58.173Z,13.70
2022-10-01T09:21:00.456Z,13.95
2022-10-01T09:26:02.944Z,14.10
2022-10-01T09:31:26.233Z,14.26
2022-10-01T09:36:47.146Z,14.43
2022-10-01T09:41:48.922Z,14.58
2022-10-01T09:46:51.007Z,14.74
2022-10-01T09:52:05.822Z,14.85
2022-10-01T09:57:16.585Z,14.95
2022-10-01T10:02:32.149Z,15.03
2022-10-01T10:07:34.906Z,15.17
2022-10-01T10:12:37.161Z,15.37
2022-10-01T10:17:43.724Z,15.55
2022-10-01T10:22:45.521Z,15.77
2022-10-01T10:27:56.115Z,15.96
2022-10-01T10:33:07.591Z,16.12
2022-10-01T10:38:20.022Z,16.21
2022-10-01T10:43:29.989Z,16.37
2022-10-01T10:48:47.615Z,16.50
2022-10-01T10:53:49.372Z,16.59
2022-10-01T10:58:53.437Z,16.75
2022-10-01T11:04:00.021Z,16.93
2022-10-01T11:09:10.030Z,17.10
2022-10-01T11:14:23.912Z,17.13
2022-10-01T11:19:31.775Z,17.30
2022-10-01T11:25:11.077Z,17.47
2022-10-01T11:30:47.515Z,17.63
2022-10-01T11:36:14.737Z,17.58
2022-10-01T11:41:42.787Z,17.78
2022-10-01T11:46:59.186Z,17.78
2022-10-01T11:52:35.083Z,17.70
2022-10-01T11:57:55.685Z,17.93
2022-10-01T12:03:02.389Z,18.09
2022-10-01T12:08:26.088Z,18.07
2022-10-01T12:13:39.822Z,18.05
2022-10-01T12:18:57.224Z,17.99
2022-10-01T12:24:28.669Z,17.98
2022-10-01T12:29:57.923Z,18.12
2022-10-01T12:35:12.117Z,18.33
2022-10-01T12:40:50.961Z,18.38
2022-10-01T12:46:26.897Z,18.26
2022-10-01T12:51:53.659Z,18.19
2022-10-01T12:57:08.101Z,18.12
2022-10-01T13:02:38.961Z,18.13
2022-10-01T13:08:08.970Z,18.17
2022-10-01T13:13:32.446Z,18.27
2022-10-01T13:19:09.172Z,18.23
2022-10-01T13:24:42.145Z,18.08
2022-10-01T13:30:34.918Z,18.09
2022-10-01T13:35:40.074Z,18.19
2022-10-01T13:40:42.868Z,18.18
2022-10-01T13:45:48.365Z,18.06
2022-10-01T13:51:02.600Z,18.17
2022-10-01T13:56:05.400Z,18.67
2022-10-01T14:01:21.386Z,19.20
2022-10-01T14:06:36.776Z,19.24
2022-10-01T14:12:04.281Z,18.93
2022-10-01T14:17:09.403Z,18.73
2022-10-01T14:22:52.370Z,18.34
2022-10-01T14:28:32.854Z,17.94
2022-10-01T14:33:40.467Z,17.60
2022-10-01T14:38:42.453Z,17.36
2022-10-01T14:43:44.538Z,17.21
2022-10-01T14:48:59.000Z,17.10
2022-10-01T14:54:01.292Z,16.91
2022-10-01T14:59:05.441Z,16.85
2022-10-01T15:04:20.736Z,16.77
2022-10-01T15:09:22.895Z,16.70
2022-10-01T15:14:25.589Z,16.50
2022-10-01T15:19:27.878Z,16.42
2022-10-01T15:24:45.926Z,16.39
2022-10-01T15:29:56.077Z,16.27
2022-10-01T15:35:01.536Z,16.17
2022-10-01T15:40:19.486Z,16.09
2022-10-01T15:45:25.415Z,16.00
2022-10-01T15:50:36.103Z,15.89
2022-10-01T15:55:52.611Z,15.76
2022-10-01T16:01:07.041Z,15.65
2022-10-01T16:06:27.487Z,15.51
2022-10-01T16:11:35.442Z,15.35
2022-10-01T16:16:37.699Z,15.21
2022-10-01T16:21:40.592Z,15.06
2022-10-01T16:26:44.727Z,15.10
2022-10-01T16:31:47.005Z,15.01
2022-10-01T16:36:49.807Z,14.88
2022-10-01T16:42:12.161Z,14.73
2022-10-01T16:47:14.770Z,14.60
2022-10-01T16:52:16.829Z,14.52
2022-10-01T16:57:18.731Z,14.42
2022-10-01T17:02:20.567Z,14.34
2022-10-01T17:07:22.541Z,14.34
2022-10-01T17:12:26.524Z,14.31
2022-10-01T17:17:28.276Z,14.24
2022-10-01T17:22:31.078Z,14.18
2022-10-01T17:27:32.894Z,14.07
2022-10-01T17:32:36.782Z,14.00
2022-10-01T17:37:39.969Z,13.93
2022-10-01T17:42:41.760Z,13.85
2022-10-01T17:47:46.062Z,13.81
2022-10-01T17:52:48.292Z,13.80
2022-10-01T17:58:23.333Z,13.77
2022-10-01T18:03:26.475Z,13.72
2022-10-01T18:08:51.208Z,13.64
2022-10-01T18:13:53.849Z,13.57
2022-10-01T18:24:25.905Z,13.51
2022-10-01T18:29:28.988Z,13.47
2022-10-01T18:35:00.160Z,13.44
2022-10-01T18:40:17.992Z,13.41
2022-10-01T18:45:48.667Z,13.35
2022-10-01T18:51:24.756Z,13.31
2022-10-01T18:56:34.030Z,13.32
2022-10-01T19:02:13.634Z,13.31
2022-10-01T19:08:06.859Z,13.28
2022-10-01T19:14:09.310Z,13.22
2022-10-01T19:19:58.296Z,13.14
2022-10-01T19:25:08.736Z,13.08
2022-10-01T19:30:19.941Z,13.08
2022-10-01T19:35:32.152Z,13.10
2022-10-01T19:40:51.575Z,13.08
2022-10-01T19:46:26.611Z,13.03
2022-10-01T19:51:35.471Z,12.95
2022-10-01T19:56:40.172Z,12.90
2022-10-01T20:02:33.881Z,12.94
2022-10-01T20:08:07.719Z,12.96
2022-10-01T20:13:53.277Z,12.98
2022-10-01T20:19:18.527Z,12.99
2022-10-01T20:24:41.049Z,12.92
2022-10-01T20:29:56.104Z,12.77
2022-10-01T20:35:31.393Z,12.62
2022-10-01T20:40:49.958Z,12.59
2022-10-01T20:45:55.362Z,12.62
2022-10-01T20:51:10.281Z,12.68
2022-10-01T20:56:28.537Z,12.71
2022-10-01T21:01:36.674Z,12.71
2022-10-01T21:07:00.248Z,12.67
2022-10-01T21:12:21.995Z,12.65
2022-10-01T21:18:21.278Z,12.69
2022-10-01T21:23:39.780Z,12.77
2022-10-01T21:28:57.957Z,12.75
2022-10-01T21:34:19.896Z,12.66
2022-10-01T21:39:55.557Z,12.51
2022-10-01T21:45:46.924Z,12.37
2022-10-01T21:50:53.281Z,12.22
2022-10-01T21:56:26.797Z,12.15
2022-10-01T22:01:54.940Z,12.13
2022-10-01T22:07:37.215Z,12.06
2022-10-01T22:12:46.474Z,12.01
2022-10-01T22:17:53.843Z,12.02
2022-10-01T22:23:09.045Z,12.05
2022-10-01T22:28:25.458Z,12.07
2022-10-01T22:33:38.312Z,11.97
2022-10-01T22:38:54.524Z,11.93
2022-10-01T22:43:57.737Z,11.90
2022-10-01T22:50:14.348Z,11.87
2022-10-01T22:55:57.922Z,11.85
2022-10-01T23:01:22.512Z,11.92
2022-10-01T23:06:56.161Z,11.92
2022-10-01T23:12:27.341Z,11.85
2022-10-01T23:17:51.926Z,11.77
2022-10-01T23:23:33.716Z,11.76
2022-10-01T23:28:44.893Z,11.76
2022-10-01T23:34:01.352Z,11.83
2022-10-01T23:39:19.620Z,11.81
2022-10-01T23:45:01.229Z,11.75
2022-10-01T23:50:10.915Z,11.69
2022-10-01T23:55:51.602Z,11.66
